createdAt,value
2019-03-10T00:00:29.083Z,9.20
2019-03-10T00:02:58.295Z,12.10
2019-03-10T00:05:27.494Z,10.87
2019-03-10T00:07:56.703Z,10.73
2019-03-10T00:10:25.905Z,10.10
2019-03-10T00:12:55.107Z,9.80
2019-03-10T00:15:24.309Z,10.17
2019-03-10T00:17:53.620Z,14.10
2019-03-10T00:20:22.840Z,10.13
2019-03-10T00:22:52.054Z,12.77
2019-03-10T00:25:21.237Z,13.50
2019-03-10T00:27:50.457Z,10.47
2019-03-10T00:30:19.657Z,15.23
2019-03-10T00:32:48.872Z,11.43
2019-03-10T00:35:18.057Z,11.57
2019-03-10T00:37:47.288Z,13.53
2019-03-10T00:40:40.342Z,13.43
2019-03-10T00:43:32.286Z,10.73
2019-03-10T00:46:24.142Z,11.17
2019-03-10T00:49:20.812Z,10.47
2019-03-10T00:52:15.172Z,13.90
2019-03-10T00:54:44.376Z,8.20
2019-03-10T00:57:13.594Z,11.83
2019-03-10T00:59:42.784Z,10.23
2019-03-10T01:02:11.996Z,12.10
2019-03-10T01:04:41.183Z,8.77
2019-03-10T01:07:10.441Z,12.73
2019-03-10T01:09:39.637Z,10.37
2019-03-10T01:12:08.918Z,11.93
2019-03-10T01:14:38.116Z,7.97
2019-03-10T01:17:07.327Z,10.20
2019-03-10T01:19:36.508Z,9.57
2019-03-10T01:22:05.719Z,8.40
2019-03-10T01:24:34.993Z,13.70
2019-03-10T01:27:04.196Z,10.57
2019-03-10T01:29:33.400Z,16.80
2019-03-10T01:32:14.690Z,10.67
2019-03-10T01:34:55.274Z,11.17
2019-03-10T01:37:24.520Z,9.30
2019-03-10T01:39:53.709Z,11.20
2019-03-10T01:42:22.946Z,16.57
2019-03-10T01:44:52.141Z,9.80
2019-03-10T01:47:21.351Z,13.93
2019-03-10T01:49:50.543Z,10.77
2019-03-10T01:52:19.757Z,10.67
2019-03-10T01:54:49.017Z,15.67
2019-03-10T01:57:18.229Z,8.67
2019-03-10T01:59:47.421Z,11.00
2019-03-10T02:02:24.904Z,8.13
2019-03-10T02:04:47.679Z,10.00
2019-03-10T02:07:16.905Z,11.07
2019-03-10T02:09:46.070Z,8.00
2019-03-10T02:12:15.301Z,11.80
2019-03-10T02:14:44.525Z,11.83
2019-03-10T02:17:13.747Z,9.07
2019-03-10T02:19:42.927Z,8.50
2019-03-10T02:22:12.137Z,7.47
2019-03-10T02:24:41.321Z,6.30
2019-03-10T02:27:10.560Z,9.67
2019-03-10T02:29:39.728Z,9.37
2019-03-10T02:32:09.058Z,5.43
2019-03-10T02:34:38.256Z,7.77
2019-03-10T02:37:07.452Z,9.20
2019-03-10T02:39:36.712Z,9.57
2019-03-10T02:42:05.933Z,10.13
2019-03-10T02:44:35.127Z,9.73
2019-03-10T02:47:04.445Z,7.17
2019-03-10T02:49:33.587Z,9.17
2019-03-10T02:52:02.797Z,9.07
2019-03-10T02:54:31.988Z,7.93
2019-03-10T02:57:01.326Z,8.60
2019-03-10T02:59:30.545Z,8.00
2019-03-10T03:01:59.807Z,9.20
2019-03-10T03:04:29.037Z,7.53
2019-03-10T03:06:58.213Z,7.23
2019-03-10T03:09:27.414Z,5.33
2019-03-10T03:11:56.599Z,5.20
2019-03-10T03:14:25.825Z,6.43
2019-03-10T03:16:55.026Z,6.90
2019-03-10T03:19:24.306Z,5.67
2019-03-10T03:21:53.493Z,6.67
2019-03-10T03:24:22.715Z,7.63
2019-03-10T03:26:51.916Z,6.33
2019-03-10T03:29:21.095Z,6.87
2019-03-10T03:31:50.330Z,7.00
2019-03-10T03:34:19.509Z,4.80
2019-03-10T03:36:48.727Z,4.50
2019-03-10T03:39:24.297Z,4.93
2019-03-10T03:41:53.479Z,4.67
2019-03-10T03:44:22.690Z,3.73
2019-03-10T03:46:51.908Z,5.20
2019-03-10T03:49:21.116Z,6.80
2019-03-10T03:51:50.293Z,4.00
2019-03-10T03:54:19.496Z,4.70
2019-03-10T03:56:48.694Z,4.00
2019-03-10T03:59:17.873Z,3.90
2019-03-10T04:04:42.204Z,3.73
2019-03-10T04:07:11.414Z,3.17
2019-03-10T04:09:40.595Z,3.00
2019-03-10T04:12:09.813Z,3.40
2019-03-10T04:14:38.988Z,3.20
2019-03-10T04:17:08.172Z,3.30
2019-03-10T04:19:37.376Z,3.40
2019-03-10T04:22:06.589Z,2.30
2019-03-10T04:24:35.767Z,2.37
2019-03-10T04:27:04.940Z,1.67
2019-03-10T04:29:34.138Z,1.80
2019-03-10T04:32:03.338Z,2.00
2019-03-10T04:34:32.581Z,1.97
2019-03-10T04:37:01.764Z,2.50
2019-03-10T04:39:30.978Z,3.23
2019-03-10T04:42:00.152Z,2.63
2019-03-10T04:44:29.456Z,2.00
2019-03-10T04:46:58.641Z,2.20
2019-03-10T04:49:27.835Z,1.80
2019-03-10T04:51:57.042Z,1.37
2019-03-10T04:54:42.652Z,1.50
2019-03-10T04:57:13.506Z,1.70
2019-03-10T04:59:42.684Z,1.50
2019-03-10T05:02:11.861Z,3.10
2019-03-10T05:04:41.054Z,4.47
2019-03-10T05:07:10.234Z,1.70
2019-03-10T05:09:39.430Z,3.67
2019-03-10T05:12:08.613Z,2.43
2019-03-10T05:14:37.802Z,2.20
2019-03-10T05:17:06.999Z,2.63
2019-03-10T05:19:36.199Z,1.57
2019-03-10T05:22:05.374Z,1.30
2019-03-10T05:24:34.592Z,1.40
2019-03-10T05:27:03.749Z,1.80
2019-03-10T05:29:33.048Z,1.80
2019-03-10T05:32:02.220Z,1.90
2019-03-10T05:34:31.389Z,2.07
2019-03-10T05:37:00.580Z,2.70
2019-03-10T05:39:29.824Z,1.70
2019-03-10T05:41:59.036Z,2.23
2019-03-10T05:44:28.227Z,2.50
2019-03-10T05:46:57.423Z,3.30
2019-03-10T05:49:26.661Z,3.00
2019-03-10T05:51:55.809Z,3.17
2019-03-10T05:54:25.006Z,2.93
2019-03-10T05:56:54.222Z,2.40
2019-03-10T05:59:23.406Z,1.73
2019-03-10T06:01:52.727Z,1.13
2019-03-10T06:04:21.913Z,1.10
2019-03-10T06:06:51.230Z,1.30
2019-03-10T06:09:20.423Z,1.20
2019-03-10T06:11:49.628Z,0.57
2019-03-10T06:14:18.820Z,0.53
2019-03-10T06:16:48.020Z,0.50
2019-03-10T06:19:17.292Z,0.20
2019-03-10T06:21:46.510Z,0.43
2019-03-10T06:24:15.709Z,0.40
2019-03-10T06:26:44.917Z,0.40
2019-03-10T06:29:14.097Z,0.40
2019-03-10T06:31:43.305Z,0.20
2019-03-10T06:34:12.485Z,0.70
2019-03-10T06:36:41.697Z,0.80
2019-03-10T06:39:10.894Z,1.73
2019-03-10T06:41:40.099Z,1.70
2019-03-10T06:44:09.291Z,0.37
2019-03-10T06:46:38.583Z,0.30
2019-03-10T06:49:07.770Z,0.63
2019-03-10T06:51:36.969Z,0.63
2019-03-10T06:54:06.161Z,0.20
2019-03-10T06:56:35.373Z,1.33
2019-03-10T06:59:04.563Z,0.40
2019-03-10T07:01:33.755Z,0.20
2019-03-10T07:04:02.956Z,0.40
2019-03-10T07:06:32.256Z,0.50
2019-03-10T07:09:01.547Z,0.40
2019-03-10T07:11:30.752Z,0.60
2019-03-10T07:13:59.943Z,0.27
2019-03-10T07:16:29.152Z,0.40
2019-03-10T07:18:58.340Z,0.10
2019-03-10T07:21:27.546Z,1.10
2019-03-10T07:23:56.844Z,0.33
2019-03-10T07:26:26.043Z,0.27
2019-03-10T07:28:56.886Z,0.90
2019-03-10T07:31:42.722Z,0.20
2019-03-10T07:34:29.861Z,0.33
2019-03-10T07:37:00.721Z,0.40
2019-03-10T07:39:31.541Z,0.57
2019-03-10T07:42:02.380Z,0.87
2019-03-10T07:44:49.164Z,0.10
2019-03-10T07:47:28.759Z,1.20
2019-03-10T07:49:59.572Z,0.43
2019-03-10T07:52:48.472Z,0.27
2019-03-10T07:55:22.330Z,0.10
2019-03-10T07:58:08.218Z,0.10
2019-03-10T08:00:39.059Z,0.20
2019-03-10T08:03:15.758Z,1.40
2019-03-10T08:05:55.651Z,0.10
2019-03-10T08:08:32.429Z,0.63
2019-03-10T08:11:09.270Z,0.33
2019-03-10T08:13:40.107Z,0.20
2019-03-10T08:16:29.154Z,0.60
2019-03-10T08:19:03.302Z,0.40
2019-03-10T08:21:40.240Z,0.17
2019-03-10T08:24:14.027Z,0.57
2019-03-10T08:26:44.874Z,0.20
2019-03-10T08:29:18.397Z,0.70
2019-03-10T08:31:55.079Z,0.20
2019-03-10T08:34:42.095Z,0.20
2019-03-10T08:37:19.081Z,0.20
2019-03-10T08:39:55.863Z,0.30
2019-03-10T08:42:26.707Z,0.83
2019-03-10T08:45:00.443Z,0.50
2019-03-10T08:47:40.415Z,0.23
2019-03-10T08:50:27.252Z,0.10
2019-03-10T08:53:14.280Z,0.23
2019-03-10T08:55:45.094Z,0.80
2019-03-10T08:58:21.709Z,0.23
2019-03-10T09:00:58.653Z,0.10
2019-03-10T09:03:29.490Z,0.70
2019-03-10T09:06:03.317Z,0.50
2019-03-10T09:08:42.979Z,0.40
2019-03-10T09:11:29.173Z,0.47
2019-03-10T09:14:02.839Z,0.50
2019-03-10T09:16:51.805Z,1.13
2019-03-10T09:19:22.678Z,0.60
2019-03-10T09:22:00.255Z,0.20
2019-03-10T09:24:33.599Z,0.63
2019-03-10T09:27:20.733Z,0.20
2019-03-10T09:29:57.563Z,0.53
2019-03-10T09:32:44.942Z,0.60
2019-03-10T09:35:15.772Z,0.30
2019-03-10T09:37:46.616Z,0.47
2019-03-10T09:40:26.320Z,0.20
2019-03-10T09:42:57.175Z,0.60
2019-03-10T09:45:33.927Z,1.30
2019-03-10T09:48:16.895Z,1.37
2019-03-10T09:50:53.224Z,0.77
2019-03-10T09:53:30.043Z,0.50
2019-03-10T09:56:17.468Z,0.83
2019-03-10T09:58:48.337Z,0.60
2019-03-10T10:01:25.311Z,0.97
2019-03-10T10:04:02.130Z,0.60
2019-03-10T10:06:51.317Z,0.40
2019-03-10T10:09:24.841Z,0.70
2019-03-10T10:12:13.046Z,0.50
2019-03-10T10:14:40.215Z,0.30
2019-03-10T10:17:17.111Z,1.27
2019-03-10T10:20:02.748Z,2.03
2019-03-10T10:22:42.384Z,1.00
2019-03-10T10:25:13.240Z,1.50
2019-03-10T10:27:53.157Z,1.37
2019-03-10T10:30:24.014Z,0.70
2019-03-10T10:33:03.905Z,0.50
2019-03-10T10:35:40.759Z,1.30
2019-03-10T10:38:19.021Z,1.03
2019-03-10T10:40:52.349Z,0.53
2019-03-10T10:43:28.969Z,1.00
2019-03-10T10:46:05.510Z,1.83
2019-03-10T10:48:38.777Z,1.10
2019-03-10T10:51:18.422Z,0.60
2019-03-10T10:53:49.302Z,1.07
2019-03-10T10:56:32.430Z,1.07
2019-03-10T10:59:12.146Z,0.83
2019-03-10T11:01:55.051Z,1.40
2019-03-10T11:04:25.895Z,1.90
2019-03-10T11:06:56.742Z,2.30
2019-03-10T11:09:33.546Z,1.90
2019-03-10T11:12:07.345Z,1.40
2019-03-10T11:14:41.172Z,1.87
2019-03-10T11:17:23.887Z,1.00
2019-03-10T11:20:11.101Z,2.23
2019-03-10T11:22:58.077Z,2.60
2019-03-10T11:25:40.971Z,1.00
2019-03-10T11:28:17.593Z,1.77
2019-03-10T11:30:48.441Z,1.83
2019-03-10T11:33:30.904Z,1.70
2019-03-10T11:36:19.539Z,1.97
2019-03-10T11:38:50.390Z,2.50
2019-03-10T11:41:33.445Z,2.87
2019-03-10T11:43:56.601Z,2.30
2019-03-10T11:46:30.167Z,2.07
2019-03-10T11:49:16.998Z,2.70
2019-03-10T11:51:50.928Z,3.47
2019-03-10T11:54:27.463Z,2.70
2019-03-10T11:57:07.157Z,3.30
2019-03-10T11:59:41.003Z,2.77
2019-03-10T12:02:18.102Z,3.23
2019-03-10T12:05:05.160Z,3.27
2019-03-10T12:07:54.148Z,4.77
2019-03-10T12:10:23.362Z,3.17
2019-03-10T12:12:52.558Z,5.10
2019-03-10T12:15:21.762Z,3.33
2019-03-10T12:17:50.962Z,4.97
2019-03-10T12:20:20.218Z,4.03
2019-03-10T12:22:49.391Z,3.23
2019-03-10T12:25:18.609Z,3.20
2019-03-10T12:27:47.814Z,3.23
2019-03-10T12:30:16.997Z,2.30
2019-03-10T12:32:46.185Z,7.97
2019-03-10T12:35:15.404Z,5.47
2019-03-10T12:37:44.585Z,7.80
2019-03-10T12:40:13.953Z,5.47
2019-03-10T12:42:43.145Z,5.10
2019-03-10T12:45:12.349Z,5.73
2019-03-10T12:47:41.536Z,6.37
2019-03-10T12:50:14.396Z,7.43
2019-03-10T12:52:43.567Z,8.93
2019-03-10T12:55:12.783Z,8.50
2019-03-10T12:57:41.978Z,9.83
2019-03-10T13:00:15.102Z,8.03
2019-03-10T13:02:44.892Z,10.57
2019-03-10T13:05:14.249Z,11.40
2019-03-10T13:07:43.439Z,8.30
2019-03-10T13:10:12.945Z,7.47
2019-03-10T13:12:42.138Z,8.77
2019-03-10T13:15:12.422Z,10.90
2019-03-10T13:17:41.615Z,8.10
2019-03-10T13:20:11.860Z,8.57
2019-03-10T13:22:41.069Z,8.30
2019-03-10T13:25:14.210Z,8.73
2019-03-10T13:27:43.414Z,8.67
2019-03-10T13:30:14.351Z,8.50
2019-03-10T13:32:44.650Z,9.87
2019-03-10T13:35:14.118Z,10.13
2019-03-10T13:37:43.317Z,7.00
2019-03-10T13:40:14.176Z,6.60
2019-03-10T13:42:43.386Z,9.57
2019-03-10T13:45:14.911Z,10.37
2019-03-10T13:47:44.104Z,7.37
2019-03-10T13:50:14.762Z,8.50
2019-03-10T13:52:43.961Z,6.70
2019-03-10T13:55:13.187Z,7.97
2019-03-10T13:57:42.366Z,9.27
2019-03-10T14:00:19.436Z,9.23
2019-03-10T14:02:48.632Z,7.43
2019-03-10T14:05:17.834Z,10.57
2019-03-10T14:07:47.030Z,9.17
2019-03-10T14:10:16.245Z,7.80
2019-03-10T14:12:45.478Z,6.50
2019-03-10T14:15:16.324Z,7.80
2019-03-10T14:17:45.530Z,5.63
2019-03-10T14:20:15.578Z,6.43
2019-03-10T14:22:44.801Z,5.37
2019-03-10T14:25:15.196Z,5.37
2019-03-10T14:27:44.612Z,5.77
2019-03-10T14:30:20.015Z,5.70
2019-03-10T14:32:49.224Z,12.17
2019-03-10T14:35:18.421Z,6.50
2019-03-10T14:37:47.638Z,10.77
2019-03-10T14:40:20.664Z,6.73
2019-03-10T14:42:49.857Z,7.90
2019-03-10T14:45:19.212Z,7.07
2019-03-10T14:47:48.420Z,8.77
2019-03-10T14:50:18.447Z,8.10
2019-03-10T14:52:47.665Z,8.60
2019-03-10T14:55:19.755Z,10.10
2019-03-10T14:57:48.991Z,6.90
2019-03-10T15:00:28.632Z,8.43
2019-03-10T15:02:57.833Z,5.33
2019-03-10T15:05:27.039Z,6.10
2019-03-10T15:07:56.246Z,7.73
2019-03-10T15:10:25.426Z,6.43
2019-03-10T15:12:54.628Z,6.27
2019-03-10T15:15:23.826Z,8.23
2019-03-10T15:17:53.954Z,5.73
2019-03-10T15:20:23.236Z,4.47
2019-03-10T15:22:52.554Z,6.30
2019-03-10T15:25:24.983Z,6.20
2019-03-10T15:27:53.597Z,4.17
2019-03-10T15:30:24.345Z,7.20
2019-03-10T15:32:53.653Z,4.03
2019-03-10T15:35:22.843Z,7.03
2019-03-10T15:37:52.056Z,9.77
2019-03-10T15:40:21.327Z,7.43
2019-03-10T15:42:50.531Z,6.33
2019-03-10T15:45:19.720Z,7.27
2019-03-10T15:47:48.925Z,3.43
2019-03-10T15:50:28.755Z,6.13
2019-03-10T15:52:57.961Z,5.83
2019-03-10T15:55:27.147Z,4.67
2019-03-10T15:57:56.375Z,4.67
2019-03-10T16:00:28.687Z,5.23
2019-03-10T16:02:57.894Z,2.80
2019-03-10T16:05:27.089Z,2.30
2019-03-10T16:07:56.302Z,3.20
2019-03-10T16:10:25.498Z,5.97
2019-03-10T16:12:54.738Z,6.80
2019-03-10T16:15:26.623Z,4.87
2019-03-10T16:17:55.832Z,4.47
2019-03-10T16:20:25.011Z,5.43
2019-03-10T16:22:55.372Z,8.90
2019-03-10T16:25:24.899Z,4.30
2019-03-10T16:27:54.095Z,8.43
2019-03-10T16:30:24.612Z,5.57
2019-03-10T16:32:53.821Z,8.33
2019-03-10T16:35:23.030Z,6.33
2019-03-10T16:37:52.250Z,5.93
2019-03-10T16:40:21.984Z,4.20
2019-03-10T16:42:51.179Z,3.23
2019-03-10T16:45:22.556Z,5.97
2019-03-10T16:47:51.765Z,5.13
2019-03-10T16:50:24.206Z,5.13
2019-03-10T16:52:53.409Z,3.53
2019-03-10T16:55:22.593Z,4.77
2019-03-10T16:57:51.799Z,5.93
2019-03-10T17:00:23.469Z,2.30
2019-03-10T17:02:52.666Z,3.97
2019-03-10T17:05:24.529Z,4.73
2019-03-10T17:07:53.792Z,6.97
2019-03-10T17:10:26.257Z,4.77
2019-03-10T17:12:55.462Z,4.37
2019-03-10T17:15:25.293Z,5.57
2019-03-10T17:17:54.495Z,6.93
2019-03-10T17:20:23.696Z,5.37
2019-03-10T17:22:52.894Z,8.13
2019-03-10T17:25:22.084Z,3.30
2019-03-10T17:27:51.277Z,3.63
2019-03-10T17:30:22.767Z,5.60
2019-03-10T17:32:51.976Z,8.47
2019-03-10T17:35:21.787Z,4.83
2019-03-10T17:37:50.980Z,6.47
2019-03-10T17:40:21.404Z,6.77
2019-03-10T17:42:50.627Z,11.50
2019-03-10T17:45:23.111Z,4.77
2019-03-10T17:47:52.318Z,5.30
2019-03-10T17:50:21.577Z,6.57
2019-03-10T17:52:51.243Z,4.87
2019-03-10T17:55:21.514Z,6.93
2019-03-10T17:57:50.701Z,4.70
2019-03-10T18:00:22.363Z,5.67
2019-03-10T18:02:51.556Z,4.57
2019-03-10T18:05:20.737Z,5.80
2019-03-10T18:07:49.980Z,5.07
2019-03-10T18:10:19.162Z,10.07
2019-03-10T18:12:48.354Z,6.47
2019-03-10T18:15:18.489Z,4.93
2019-03-10T18:17:47.680Z,6.00
2019-03-10T18:20:19.292Z,8.93
2019-03-10T18:22:48.518Z,6.37
2019-03-10T18:25:17.731Z,7.17
2019-03-10T18:27:46.913Z,7.87
2019-03-10T18:30:18.710Z,4.37
2019-03-10T18:32:47.887Z,7.73
2019-03-10T18:35:17.167Z,6.77
2019-03-10T18:37:46.366Z,9.03
2019-03-10T18:40:19.901Z,8.60
2019-03-10T18:42:49.090Z,9.57
2019-03-10T18:45:19.104Z,10.27
2019-03-10T18:47:48.290Z,6.93
2019-03-10T18:50:38.488Z,7.73
2019-03-10T18:53:07.693Z,8.97
2019-03-10T18:55:36.873Z,9.57
2019-03-10T18:58:06.078Z,14.67
2019-03-10T19:00:35.383Z,8.80
2019-03-10T19:03:04.545Z,9.63
2019-03-10T19:05:33.746Z,6.53
2019-03-10T19:08:02.926Z,9.90
2019-03-10T19:10:32.134Z,10.20
2019-03-10T19:13:01.331Z,10.73
2019-03-10T19:15:30.531Z,8.93
2019-03-10T19:17:59.715Z,12.30
2019-03-10T19:20:28.953Z,11.43
2019-03-10T19:22:58.141Z,4.87
2019-03-10T19:25:27.336Z,7.17
2019-03-10T19:27:56.517Z,8.10
2019-03-10T19:30:25.713Z,4.97
2019-03-10T19:32:54.922Z,10.40
2019-03-10T19:35:24.124Z,5.37
2019-03-10T19:37:53.311Z,9.63
2019-03-10T19:40:25.464Z,9.17
2019-03-10T19:42:54.681Z,6.40
2019-03-10T19:45:24.720Z,11.33
2019-03-10T19:47:53.920Z,11.53
2019-03-10T19:50:27.092Z,9.90
2019-03-10T19:52:55.564Z,10.97
2019-03-10T19:55:24.789Z,15.20
2019-03-10T19:57:53.980Z,14.90
2019-03-10T20:00:23.224Z,11.97
2019-03-10T20:02:52.417Z,12.87
2019-03-10T20:05:21.712Z,16.87
2019-03-10T20:07:50.916Z,13.60
2019-03-10T20:10:21.280Z,10.83
2019-03-10T20:12:50.462Z,11.13
2019-03-10T20:15:20.797Z,10.20
2019-03-10T20:17:50.005Z,13.17
2019-03-10T20:20:24.997Z,10.90
2019-03-10T20:22:54.183Z,10.50
2019-03-10T20:25:23.413Z,9.93
2019-03-10T20:27:52.616Z,13.43
2019-03-10T20:30:22.768Z,15.87
2019-03-10T20:32:52.068Z,13.60
2019-03-10T20:35:21.382Z,12.00
2019-03-10T20:37:50.547Z,12.30
2019-03-10T20:40:26.021Z,12.97
2019-03-10T20:42:55.288Z,10.57
2019-03-10T20:45:24.953Z,13.10
2019-03-10T20:47:56.536Z,8.50
2019-03-10T20:50:25.174Z,17.67
2019-03-10T20:52:54.458Z,12.67
2019-03-10T20:55:23.682Z,15.97
2019-03-10T20:57:52.874Z,13.97
2019-03-10T21:00:28.360Z,8.63
2019-03-10T21:02:57.551Z,8.87
2019-03-10T21:05:26.755Z,15.47
2019-03-10T21:07:56.135Z,13.13
2019-03-10T21:10:26.681Z,12.10
2019-03-10T21:12:55.896Z,10.90
2019-03-10T21:15:26.561Z,9.50
2019-03-10T21:17:56.014Z,11.43
2019-03-10T21:20:26.100Z,12.40
2019-03-10T21:22:55.340Z,15.20
2019-03-10T21:25:29.127Z,11.70
2019-03-10T21:27:58.306Z,9.20
2019-03-10T21:30:29.079Z,14.57
2019-03-10T21:32:58.271Z,12.83
2019-03-10T21:35:27.490Z,12.90
2019-03-10T21:37:56.699Z,12.77
2019-03-10T21:40:28.283Z,10.50
2019-03-10T21:42:57.479Z,8.57
2019-03-10T21:45:26.683Z,11.33
2019-03-10T21:47:55.876Z,12.57
2019-03-10T21:50:25.095Z,10.57
2019-03-10T21:52:54.284Z,13.13
2019-03-10T21:55:23.469Z,8.87
2019-03-10T21:57:52.664Z,7.33
2019-03-10T22:00:21.872Z,15.60
2019-03-10T22:02:51.065Z,12.77
2019-03-10T22:05:20.263Z,12.47
2019-03-10T22:07:49.469Z,10.53
2019-03-10T22:10:27.198Z,9.73
2019-03-10T22:12:50.525Z,14.10
2019-03-10T22:15:20.694Z,11.83
2019-03-10T22:17:49.908Z,11.87
2019-03-10T22:20:19.943Z,11.73
2019-03-10T22:22:50.195Z,15.83
2019-03-10T22:25:19.662Z,11.90
2019-03-10T22:27:48.870Z,8.77
2019-03-10T22:30:19.413Z,11.73
2019-03-10T22:32:48.603Z,10.50
2019-03-10T22:35:17.873Z,13.33
2019-03-10T22:37:47.094Z,10.60
2019-03-10T22:40:17.946Z,9.60
2019-03-10T22:42:47.140Z,8.57
2019-03-10T22:45:19.811Z,19.83
2019-03-10T22:47:49.095Z,13.97
2019-03-10T22:50:18.353Z,8.67
2019-03-10T22:52:47.560Z,11.17
2019-03-10T22:55:16.746Z,13.73
2019-03-10T22:57:45.941Z,12.60
2019-03-10T23:00:20.885Z,12.70
2019-03-10T23:02:50.098Z,12.57
2019-03-10T23:05:19.455Z,10.10
2019-03-10T23:07:48.645Z,9.07
2019-03-10T23:10:17.818Z,16.47
2019-03-10T23:12:47.023Z,7.80
2019-03-10T23:15:16.212Z,16.27
2019-03-10T23:17:45.410Z,15.53
2019-03-10T23:20:17.506Z,10.80
2019-03-10T23:22:46.698Z,9.80
2019-03-10T23:25:15.896Z,14.63
2019-03-10T23:27:45.097Z,17.33
2019-03-10T23:30:18.005Z,14.57
2019-03-10T23:32:47.217Z,13.37
2019-03-10T23:35:16.380Z,10.80
2019-03-10T23:37:45.578Z,12.33
2019-03-10T23:40:16.939Z,15.90
2019-03-10T23:42:46.149Z,10.83
2019-03-10T23:45:16.555Z,13.43
2019-03-10T23:47:45.783Z,15.53
2019-03-10T23:50:16.398Z,13.83
2019-03-10T23:52:45.603Z,8.90
2019-03-10T23:55:14.851Z,9.50
2019-03-10T23:57:44.050Z,12.83
